Terminal Aerodrome Forecast
Issued by NWS

Home | Current Version | Previous Version | Text Only | Print | Product List | Glossary On
Versions: 1 2 3 4 5 6 7 8 9 10 11 12 13 14 15 16 17 18 19 20 21 22 23 24 25 26 27 28 29
956
FTUS43 KGRR 132326
TAFLAN
TAF
KLAN 132326Z 1400/1424 08011KT 1SM -SN OVC015
      TEMPO 1400/1402 1/2SM SN VV009
     FM140200 02010KT 2SM -SN OVC025
     FM140330 36011KT 4SM -SN OVC035
     FM140500 35010KT P6SM OVC050=

USA.gov is the U.S. government's official web portal to all federal, state and local government web resources and services.